Tutuzlupinar, Turkey
Current Conditions -  °F | °C
As of 9:20 PM on Wednesday 28 Jan 2015 (Local Time) from LTAP Reporting Station
Broken Clouds Broken Clouds  
Wind Chill: 36°   Ceiling: 10000
Heat Index: 39°   Visibility: 6mi
Dew Point: 32°   Wind: 5mph
Humidity: 75%   Direction: 20°NNE
Pressure: 29.8"   Gusts: NA
Location:  41.98°N, 35.09°E
Report Text: LTAP 281820Z 02004KT 9999 SCT040 BKN100 04/00 Q1009 NOSIG
Loading
Personal Weather Stations






























Interactive Weather Map New forecast layout! Learn more

10-Day Weather Forecast

Advertisements
Track Severe Weather on mobile